Time;durP1;ratioP1;P1;durP2;ratioP2;P2;SDS_P1;SDS_P2;PMS_P1;PMS_P2;Temp;Humidity;BMP_temperature;BMP_pressure;BME280_temperature;BME280_humidity;BME280_pressure;Samples;Min_cycle;Max_cycle;Signal;HPM_P1;HPM_P2
2024/01/22 00:04:23;;;;;;;16.2;9.1;;;;;;;-2.62;76.58;99801.666666667;;;;
2024/01/22 00:14:23;;;;;;;16.2;9.1;;;;;;;-2.58;74.64;99786.666666667;;;;
2024/01/22 00:25:23;;;;;;;16.2;9.1;;;;;;;-2.57;73.96;99775;;;;
2024/01/22 00:36:23;;;;;;;11.7;6;;;;;;;-2.45;69.93;99780;;;;
2024/01/22 00:46:23;;;;;;;11.7;6;;;;;;;-2.38;70.98;99783.333333333;;;;
2024/01/22 00:57:23;;;;;;;11.7;6;;;;;;;-2.37;70.14;99793.333333333;;;;
2024/01/22 01:07:23;;;;;;;11;5.2;;;;;;;-2.57;70.48;99798.333333333;;;;
2024/01/22 01:17:23;;;;;;;11;5.2;;;;;;;-2.87;71.82;99781.666666667;;;;
2024/01/22 01:28:23;;;;;;;11;5.2;;;;;;;-3.12;72.27;99763.333333333;;;;
2024/01/22 01:38:23;;;;;;;10.9;5.2;;;;;;;-2.51;67.59;99740;;;;
2024/01/22 01:48:23;;;;;;;10.9;5.2;;;;;;;-1.82;63.83;99723.333333333;;;;
2024/01/22 01:59:23;;;;;;;7;4.1;;;;;;;-1.42;60.33;99720;;;;
2024/01/22 02:10:23;;;;;;;7;4.1;;;;;;;-1.51;61.06;99705;;;;
2024/01/22 02:20:23;;;;;;;7;4.1;;;;;;;-1.51;59.95;99681.666666667;;;;
2024/01/22 02:30:23;;;;;;;7.4;2.7;;;;;;;-1.56;60.19;99661.666666667;;;;
2024/01/22 02:40:23;;;;;;;7.4;2.7;;;;;;;-1.28;59.23;99631.666666667;;;;
2024/01/22 02:51:23;;;;;;;7.4;2.7;;;;;;;-0.83;56.36;99616.666666667;;;;
2024/01/22 03:02:23;;;;;;;4.7;2.1;;;;;;;-0.83;56.62;99603.333333333;;;;
2024/01/22 03:12:23;;;;;;;4.7;2.1;;;;;;;-1.25;60.61;99605;;;;
2024/01/22 03:22:23;;;;;;;4.7;2.1;;;;;;;-1.84;62.77;99611.666666667;;;;
2024/01/22 03:32:23;;;;;;;5.6;3.1;;;;;;;-2.23;63.71;99600;;;;
2024/01/22 03:43:23;;;;;;;5.6;3.1;;;;;;;-2.7;66.01;99595;;;;
2024/01/22 03:53:23;;;;;;;5.6;3.1;;;;;;;-3.01;66.37;99590;;;;
2024/01/22 04:04:23;;;;;;;14.7;6.6;;;;;;;-3.27;68.46;99575;;;;
2024/01/22 04:15:23;;;;;;;14.7;6.6;;;;;;;-3.36;68.64;99566.666666667;;;;
2024/01/22 04:26:23;;;;;;;14.7;6.6;;;;;;;-3.3;66.68;99553.333333333;;;;
2024/01/22 04:37:23;;;;;;;8.6;4.9;;;;;;;-2.76;62.68;99541.666666667;;;;
2024/01/22 04:47:23;;;;;;;8.6;4.9;;;;;;;-2.92;65.21;99538.333333333;;;;
2024/01/22 04:58:23;;;;;;;6.5;3.9;;;;;;;-3.19;68.25;99523.333333333;;;;
2024/01/22 05:08:23;;;;;;;6.5;3.9;;;;;;;-2.1;59;99508.333333333;;;;
2024/01/22 05:18:23;;;;;;;6.5;3.9;;;;;;;-1.17;55.87;99511.666666667;;;;
2024/01/22 05:28:23;;;;;;;3.9;2.2;;;;;;;-1.26;59.11;99511.666666667;;;;
2024/01/22 05:39:23;;;;;;;3.9;2.2;;;;;;;-1.39;57.49;99498.333333333;;;;
2024/01/22 05:50:23;;;;;;;3.9;2.2;;;;;;;-2.5;67.16;99491.666666667;;;;
2024/01/22 06:01:23;;;;;;;13.6;7.5;;;;;;;-2.62;66.37;99488.333333333;;;;
2024/01/22 06:12:23;;;;;;;13.6;7.5;;;;;;;-2.9;66.93;99478.333333333;;;;
2024/01/22 06:23:23;;;;;;;13.6;7.5;;;;;;;-3.15;68.62;99465;;;;
2024/01/22 06:33:23;;;;;;;15.3;8.3;;;;;;;-3.01;66.37;99450;;;;
2024/01/22 06:43:23;;;;;;;15.3;8.3;;;;;;;-2.43;62.63;99425;;;;
2024/01/22 06:54:23;;;;;;;15.3;8.3;;;;;;;-1.98;60.35;99416.666666667;;;;
2024/01/22 07:05:26;;;;;;;7.4;3.6;;;;;;;-1.63;57.57;99400;;;;
2024/01/22 07:15:23;;;;;;;7.4;3.6;;;;;;;-1.39;57.37;99390;;;;
2024/01/22 07:25:24;;;;;;;7.4;3.6;;;;;;;-1.2;57.78;99372.5;;;;
2024/01/22 07:35:24;;;;;;;6.8;3.4;;;;;;;-1.02;60.42;99362.5;;;;
2024/01/22 07:45:23;;;;;;;6.8;3.4;;;;;;;-0.88;60.37;99350;;;;
2024/01/22 07:56:23;;;;;;;6.8;3.4;;;;;;;-0.04;54.54;99316.666666667;;;;
2024/01/22 08:07:23;;;;;;;5.5;3.2;;;;;;;0.56;50.88;99291.666666667;;;;
2024/01/22 08:17:23;;;;;;;5.5;3.2;;;;;;;1.04;49.95;99276.666666667;;;;
2024/01/22 08:28:24;;;;;;;6.3;3.5;;;;;;;1.64;47.55;99268.333333333;;;;
2024/01/22 08:38:23;;;;;;;6.3;3.5;;;;;;;2.3;46.7;99255;;;;
2024/01/22 08:49:23;;;;;;;6.3;3.5;;;;;;;2.94;45.65;99226.666666667;;;;
2024/01/22 09:00:23;;;;;;;7.7;4.4;;;;;;;3.66;45.95;99200;;;;
2024/01/22 09:10:23;;;;;;;7.7;4.4;;;;;;;4.35;41.93;99190;;;;
2024/01/22 09:20:23;;;;;;;7.7;4.4;;;;;;;5;38.42;99173.333333333;;;;
2024/01/22 09:31:23;;;;;;;5.8;3.4;;;;;;;5.78;34.55;99158.333333333;;;;
2024/01/22 09:41:23;;;;;;;5.8;3.4;;;;;;;6.5;34.65;99131.666666667;;;;
2024/01/22 09:52:23;;;;;;;5.8;3.4;;;;;;;7.2;32.47;99100;;;;
2024/01/22 10:02:23;;;;;;;7.3;3.6;;;;;;;7.94;32.16;99088.333333333;;;;
2024/01/22 10:13:23;;;;;;;7.3;3.6;;;;;;;8.5;29.3;99085;;;;
2024/01/22 10:23:23;;;;;;;7.3;3.6;;;;;;;8.79;32.22;99066.666666667;;;;
2024/01/22 10:34:23;;;;;;;8.2;4.3;;;;;;;9.02;40.39;99070;;;;
2024/01/22 10:45:23;;;;;;;8.2;4.3;;;;;;;8.68;45.67;99081.666666667;;;;
2024/01/22 10:56:23;;;;;;;8.2;4.3;;;;;;;8.6;45.49;99075;;;;
2024/01/22 11:06:23;;;;;;;28;20.8;;;;;;;8.68;45.19;99065;;;;
2024/01/22 11:17:25;;;;;;;28;20.8;;;;;;;8.98;43.08;99056.666666667;;;;
2024/01/22 11:27:23;;;;;;;24.5;18.9;;;;;;;9.09;41.31;99051.666666667;;;;
2024/01/22 11:37:23;;;;;;;24.5;18.9;;;;;;;9.12;40.28;99033.333333333;;;;
2024/01/22 11:48:23;;;;;;;24.5;18.9;;;;;;;9.39;33.86;99021.666666667;;;;
2024/01/22 11:59:23;;;;;;;14;11.2;;;;;;;9.8;28.71;99030;;;;
2024/01/22 12:10:23;;;;;;;14;11.2;;;;;;;9.99;31.61;99021.666666667;;;;
2024/01/22 12:20:23;;;;;;;14;11.2;;;;;;;10.05;31.45;99005;;;;
2024/01/22 12:31:23;;;;;;;6.6;4.3;;;;;;;10.16;31.6;99001.666666667;;;;
2024/01/22 12:41:24;;;;;;;6.6;4.3;;;;;;;10.11;26.28;99000;;;;
2024/01/22 12:51:23;;;;;;;6.6;4.3;;;;;;;10;27.35;98973.333333333;;;;
2024/01/22 13:01:23;;;;;;;5.6;3;;;;;;;9.75;25.48;98933.333333333;;;;
2024/01/22 13:12:23;;;;;;;5.6;3;;;;;;;9.37;27.8;98945;;;;
2024/01/22 13:23:23;;;;;;;5.6;3;;;;;;;9.16;26.25;98913.333333333;;;;
2024/01/22 13:34:24;;;;;;;4.5;2.4;;;;;;;8.9;25.49;98900;;;;
2024/01/22 13:45:23;;;;;;;4.5;2.4;;;;;;;8.51;32.22;98876.666666667;;;;
2024/01/22 13:55:23;;;;;;;4.5;2.4;;;;;;;8.14;34.53;98848.333333333;;;;
2024/01/22 14:06:23;;;;;;;6.5;3.2;;;;;;;7.82;33.57;98818.333333333;;;;
2024/01/22 14:16:23;;;;;;;6.5;3.2;;;;;;;7.64;33.69;98830;;;;
2024/01/22 14:26:23;;;;;;;6.5;3.2;;;;;;;7.33;34.83;98848.333333333;;;;
2024/01/22 14:37:23;;;;;;;21;10.7;;;;;;;6.85;36.55;98855;;;;
2024/01/22 14:48:25;;;;;;;21;10.7;;;;;;;7.16;27.86;98818.333333333;;;;
2024/01/22 14:59:23;;;;;;;12.7;5.8;;;;;;;7.56;26.61;98810;;;;
2024/01/22 15:10:23;;;;;;;12.7;5.8;;;;;;;7.45;28.39;98798.333333333;;;;
2024/01/22 15:21:23;;;;;;;12.7;5.8;;;;;;;7.5;27.89;98830;;;;
2024/01/22 15:32:23;;;;;;;7.8;3.5;;;;;;;7.61;28.16;98816.666666667;;;;
2024/01/22 15:42:23;;;;;;;7.8;3.5;;;;;;;7.67;27.92;98796.666666667;;;;
2024/01/22 15:53:23;;;;;;;7.8;3.5;;;;;;;7.45;29.32;98765;;;;
2024/01/22 16:04:23;;;;;;;8.8;4.4;;;;;;;7.19;33.13;98728.333333333;;;;
2024/01/22 16:15:23;;;;;;;8.8;4.4;;;;;;;7.22;33.8;98660;;;;
2024/01/22 16:25:23;;;;;;;8.8;4.4;;;;;;;7.34;30.41;98673.333333333;;;;
2024/01/22 16:36:25;;;;;;;10.3;5.2;;;;;;;7.3;35.59;98613.333333333;;;;
2024/01/22 16:46:23;;;;;;;10.3;5.2;;;;;;;7.33;31.96;98648.333333333;;;;
2024/01/22 16:57:23;;;;;;;13;6.5;;;;;;;7.06;34.42;98648.333333333;;;;
2024/01/22 17:08:23;;;;;;;13;6.5;;;;;;;6.84;36.48;98668.333333333;;;;
2024/01/22 17:19:23;;;;;;;13;6.5;;;;;;;6.66;35.85;98666.666666667;;;;
2024/01/22 17:29:23;;;;;;;14.7;8.9;;;;;;;6.65;34.91;98671.666666667;;;;
2024/01/22 17:39:24;;;;;;;14.7;8.9;;;;;;;6.93;34.34;98651.666666667;;;;
2024/01/22 17:50:23;;;;;;;14.7;8.9;;;;;;;7.1;32.69;98645;;;;
2024/01/22 18:01:23;;;;;;;11.8;5;;;;;;;7.15;32.31;98656.666666667;;;;
2024/01/22 18:11:24;;;;;;;11.8;5;;;;;;;7.33;33.33;98660;;;;
2024/01/22 18:21:23;;;;;;;11.8;5;;;;;;;7.41;31.99;98646.666666667;;;;
2024/01/22 18:32:23;;;;;;;8.3;4.7;;;;;;;7.61;31.77;98628.333333333;;;;
2024/01/22 18:42:23;;;;;;;8.3;4.7;;;;;;;7.64;32.23;98618.333333333;;;;
2024/01/22 18:53:23;;;;;;;8.3;4.7;;;;;;;7.6;32.87;98626.666666667;;;;
2024/01/22 19:03:25;;;;;;;7;4;;;;;;;7.46;32.79;98628.333333333;;;;
2024/01/22 19:14:23;;;;;;;7;4;;;;;;;7.33;33.32;98616.666666667;;;;
2024/01/22 19:25:23;;;;;;;7;4;;;;;;;7.3;33.88;98600;;;;
2024/01/22 19:36:23;;;;;;;9.4;5;;;;;;;7.37;36.21;98613.333333333;;;;
2024/01/22 19:47:24;;;;;;;9.4;5;;;;;;;7.46;38.49;98636.666666667;;;;
2024/01/22 19:57:23;;;;;;;9.4;5.1;;;;;;;7.5;40.41;98620;;;;
2024/01/22 20:08:23;;;;;;;9.4;5.1;;;;;;;7.51;47.82;98650;;;;
2024/01/22 20:19:23;;;;;;;9.4;5.1;;;;;;;7.24;59.52;98676.666666667;;;;
2024/01/22 20:30:23;;;;;;;7.3;3.5;;;;;;;6.88;62.53;98700;;;;
2024/01/22 20:40:23;;;;;;;7.3;3.5;;;;;;;6.59;63.91;98693.333333333;;;;
2024/01/22 20:51:23;;;;;;;7.3;3.5;;;;;;;6.4;60.71;98710;;;;
2024/01/22 21:01:23;;;;;;;6.7;3;;;;;;;6.39;59.6;98700;;;;
2024/01/22 21:11:23;;;;;;;6.7;3;;;;;;;6.41;59.85;98700;;;;
2024/01/22 21:22:23;;;;;;;6.7;3;;;;;;;6.46;60.39;98690;;;;
2024/01/22 21:32:23;;;;;;;5.6;2.9;;;;;;;6.62;59.73;98701.666666667;;;;
2024/01/22 21:43:23;;;;;;;5.6;2.9;;;;;;;6.7;59.56;98701.666666667;;;;
2024/01/22 21:54:23;;;;;;;5.6;2.9;;;;;;;6.75;60.8;98710;;;;
2024/01/22 22:04:23;;;;;;;6.4;3.2;;;;;;;6.61;63.56;98728.333333333;;;;
2024/01/22 22:15:23;;;;;;;6.4;3.2;;;;;;;6.48;64.5;98741.666666667;;;;
2024/01/22 22:25:23;;;;;;;6.4;3.2;;;;;;;6.12;68.98;98748.333333333;;;;
2024/01/22 22:35:24;;;;;;;6.2;3.2;;;;;;;5.75;74.06;98756.666666667;;;;
2024/01/22 22:45:23;;;;;;;6.2;3.2;;;;;;;5.35;78.5;98776.666666667;;;;
2024/01/22 22:55:23;;;;;;;6.2;3.2;;;;;;;5.22;79.4;98778.333333333;;;;
2024/01/22 23:06:23;;;;;;;6.2;2.9;;;;;;;5.12;80.31;98796.666666667;;;;
2024/01/22 23:17:23;;;;;;;6.2;2.9;;;;;;;5.12;80.46;98786.666666667;;;;
2024/01/22 23:28:24;;;;;;;7.6;3.7;;;;;;;5;81.23;98785;;;;
2024/01/22 23:39:23;;;;;;;7.6;3.7;;;;;;;4.49;81.93;98770;;;;
2024/01/22 23:50:23;;;;;;;7.6;3.7;;;;;;;4.48;80.73;98776.666666667;;;;
